sensor_id;sensor_type;location;lat;lon;timestamp;temperature;humidity
25342;DHT22;13298;48.792;9.154;2023-04-12T00:01:06;8.70;99.90
25342;DHT22;13298;48.792;9.154;2023-04-12T00:03:32;8.70;99.90
25342;DHT22;13298;48.792;9.154;2023-04-12T00:05:59;8.70;99.90
25342;DHT22;13298;48.792;9.154;2023-04-12T00:08:30;8.70;99.90
25342;DHT22;13298;48.792;9.154;2023-04-12T00:11:00;8.70;99.90
25342;DHT22;13298;48.792;9.154;2023-04-12T00:13:27;8.70;99.90
25342;DHT22;13298;48.792;9.154;2023-04-12T00:15:54;8.70;99.90
25342;DHT22;13298;48.792;9.154;2023-04-12T00:18:19;8.70;99.90
25342;DHT22;13298;48.792;9.154;2023-04-12T00:20:49;8.60;99.90
25342;DHT22;13298;48.792;9.154;2023-04-12T00:23:16;8.60;99.90
25342;DHT22;13298;48.792;9.154;2023-04-12T00:25:43;8.60;99.90
25342;DHT22;13298;48.792;9.154;2023-04-12T00:28:09;8.60;99.90
25342;DHT22;13298;48.792;9.154;2023-04-12T00:30:35;8.60;99.90
25342;DHT22;13298;48.792;9.154;2023-04-12T00:33:01;8.60;99.90
25342;DHT22;13298;48.792;9.154;2023-04-12T00:35:27;8.50;99.90
25342;DHT22;13298;48.792;9.154;2023-04-12T00:37:52;8.50;99.90
25342;DHT22;13298;48.792;9.154;2023-04-12T00:40:19;8.50;99.90
25342;DHT22;13298;48.792;9.154;2023-04-12T00:42:45;8.50;99.90
25342;DHT22;13298;48.792;9.154;2023-04-12T00:45:11;8.40;99.90
25342;DHT22;13298;48.792;9.154;2023-04-12T00:47:38;8.40;99.90
25342;DHT22;13298;48.792;9.154;2023-04-12T00:50:05;8.30;99.90
25342;DHT22;13298;48.792;9.154;2023-04-12T00:52:32;8.20;99.90
25342;DHT22;13298;48.792;9.154;2023-04-12T00:55:03;8.10;99.90
25342;DHT22;13298;48.792;9.154;2023-04-12T00:57:35;8.00;99.90
25342;DHT22;13298;48.792;9.154;2023-04-12T01:00:06;8.00;99.90
25342;DHT22;13298;48.792;9.154;2023-04-12T01:02:37;7.90;99.90
25342;DHT22;13298;48.792;9.154;2023-04-12T01:05:06;7.80;99.90
25342;DHT22;13298;48.792;9.154;2023-04-12T01:08:06;7.80;99.90
25342;DHT22;13298;48.792;9.154;2023-04-12T01:16:37;7.60;99.90
25342;DHT22;13298;48.792;9.154;2023-04-12T01:19:32;7.60;99.90
25342;DHT22;13298;48.792;9.154;2023-04-12T01:27:55;7.60;99.90
25342;DHT22;13298;48.792;9.154;2023-04-12T01:30:25;7.50;99.90
25342;DHT22;13298;48.792;9.154;2023-04-12T01:32:53;7.50;99.90
25342;DHT22;13298;48.792;9.154;2023-04-12T01:35:22;7.50;99.90
25342;DHT22;13298;48.792;9.154;2023-04-12T01:37:53;7.50;99.90
25342;DHT22;13298;48.792;9.154;2023-04-12T01:40:20;7.40;99.90
25342;DHT22;13298;48.792;9.154;2023-04-12T01:42:46;7.40;99.90
25342;DHT22;13298;48.792;9.154;2023-04-12T01:45:11;7.40;99.90
25342;DHT22;13298;48.792;9.154;2023-04-12T01:47:37;7.40;99.90
25342;DHT22;13298;48.792;9.154;2023-04-12T01:50:18;7.40;99.90
25342;DHT22;13298;48.792;9.154;2023-04-12T01:52:53;7.40;99.90
25342;DHT22;13298;48.792;9.154;2023-04-12T01:55:29;7.30;99.90
25342;DHT22;13298;48.792;9.154;2023-04-12T01:57:56;7.30;99.90
25342;DHT22;13298;48.792;9.154;2023-04-12T02:00:22;7.30;99.90
25342;DHT22;13298;48.792;9.154;2023-04-12T02:02:49;7.30;99.90
25342;DHT22;13298;48.792;9.154;2023-04-12T02:05:15;7.30;99.90
25342;DHT22;13298;48.792;9.154;2023-04-12T02:07:42;7.20;99.90
25342;DHT22;13298;48.792;9.154;2023-04-12T02:10:12;7.20;99.90
25342;DHT22;13298;48.792;9.154;2023-04-12T02:12:39;7.20;99.90
25342;DHT22;13298;48.792;9.154;2023-04-12T02:15:06;7.20;99.90
25342;DHT22;13298;48.792;9.154;2023-04-12T02:17:33;7.20;99.90
25342;DHT22;13298;48.792;9.154;2023-04-12T02:20:02;7.20;99.90
25342;DHT22;13298;48.792;9.154;2023-04-12T02:22:32;7.20;99.90
25342;DHT22;13298;48.792;9.154;2023-04-12T02:24:57;7.20;99.90
25342;DHT22;13298;48.792;9.154;2023-04-12T02:27:24;7.10;99.90
25342;DHT22;13298;48.792;9.154;2023-04-12T02:29:50;7.20;99.90
25342;DHT22;13298;48.792;9.154;2023-04-12T02:32:16;7.20;99.90
25342;DHT22;13298;48.792;9.154;2023-04-12T02:34:41;7.20;99.90
25342;DHT22;13298;48.792;9.154;2023-04-12T02:37:09;7.20;99.90
25342;DHT22;13298;48.792;9.154;2023-04-12T02:39:37;7.10;99.90
25342;DHT22;13298;48.792;9.154;2023-04-12T02:42:06;7.20;99.90
25342;DHT22;13298;48.792;9.154;2023-04-12T02:44:31;7.20;99.90
25342;DHT22;13298;48.792;9.154;2023-04-12T02:46:57;7.10;99.90
25342;DHT22;13298;48.792;9.154;2023-04-12T02:49:23;7.20;99.90
25342;DHT22;13298;48.792;9.154;2023-04-12T02:51:49;7.20;99.90
25342;DHT22;13298;48.792;9.154;2023-04-12T02:54:14;7.10;99.90
25342;DHT22;13298;48.792;9.154;2023-04-12T02:56:41;7.10;99.90
25342;DHT22;13298;48.792;9.154;2023-04-12T02:59:08;7.10;99.90
25342;DHT22;13298;48.792;9.154;2023-04-12T03:01:33;7.10;99.90
25342;DHT22;13298;48.792;9.154;2023-04-12T03:03:59;7.10;99.90
25342;DHT22;13298;48.792;9.154;2023-04-12T03:06:26;7.10;99.90
25342;DHT22;13298;48.792;9.154;2023-04-12T03:08:52;7.10;99.90
25342;DHT22;13298;48.792;9.154;2023-04-12T03:11:18;7.10;99.90
25342;DHT22;13298;48.792;9.154;2023-04-12T03:13:43;7.10;99.90
25342;DHT22;13298;48.792;9.154;2023-04-12T03:16:20;7.10;99.90
25342;DHT22;13298;48.792;9.154;2023-04-12T03:18:53;7.10;99.90
25342;DHT22;13298;48.792;9.154;2023-04-12T03:21:21;7.10;99.90
25342;DHT22;13298;48.792;9.154;2023-04-12T03:23:46;7.10;99.90
25342;DHT22;13298;48.792;9.154;2023-04-12T03:26:12;7.10;99.90
25342;DHT22;13298;48.792;9.154;2023-04-12T03:28:39;7.10;99.90
25342;DHT22;13298;48.792;9.154;2023-04-12T03:31:06;7.20;99.90
25342;DHT22;13298;48.792;9.154;2023-04-12T03:33:31;7.10;99.90
25342;DHT22;13298;48.792;9.154;2023-04-12T03:35:57;7.20;99.90
25342;DHT22;13298;48.792;9.154;2023-04-12T03:38:23;7.10;99.90
25342;DHT22;13298;48.792;9.154;2023-04-12T03:40:48;7.10;99.90
25342;DHT22;13298;48.792;9.154;2023-04-12T03:43:14;7.10;99.90
25342;DHT22;13298;48.792;9.154;2023-04-12T03:45:41;7.20;99.90
25342;DHT22;13298;48.792;9.154;2023-04-12T03:48:07;7.20;99.90
25342;DHT22;13298;48.792;9.154;2023-04-12T03:50:35;7.20;99.90
25342;DHT22;13298;48.792;9.154;2023-04-12T03:53:08;7.20;99.90
25342;DHT22;13298;48.792;9.154;2023-04-12T03:55:37;7.20;99.90
25342;DHT22;13298;48.792;9.154;2023-04-12T03:58:03;7.30;99.90
25342;DHT22;13298;48.792;9.154;2023-04-12T04:00:29;7.20;99.90
25342;DHT22;13298;48.792;9.154;2023-04-12T04:02:59;7.20;99.90
25342;DHT22;13298;48.792;9.154;2023-04-12T04:05:28;7.20;99.90
25342;DHT22;13298;48.792;9.154;2023-04-12T04:07:55;7.20;99.90
25342;DHT22;13298;48.792;9.154;2023-04-12T04:10:21;7.20;99.90
25342;DHT22;13298;48.792;9.154;2023-04-12T04:12:46;7.20;99.90
25342;DHT22;13298;48.792;9.154;2023-04-12T04:15:14;7.20;99.90
25342;DHT22;13298;48.792;9.154;2023-04-12T04:17:39;7.20;99.90
25342;DHT22;13298;48.792;9.154;2023-04-12T04:20:08;7.20;99.90
25342;DHT22;13298;48.792;9.154;2023-04-12T04:22:36;7.20;99.90
25342;DHT22;13298;48.792;9.154;2023-04-12T04:25:02;7.20;99.90
25342;DHT22;13298;48.792;9.154;2023-04-12T04:27:28;7.20;99.90
25342;DHT22;13298;48.792;9.154;2023-04-12T04:29:55;7.20;99.90
25342;DHT22;13298;48.792;9.154;2023-04-12T04:32:24;7.20;99.90
25342;DHT22;13298;48.792;9.154;2023-04-12T04:34:49;7.20;99.90
25342;DHT22;13298;48.792;9.154;2023-04-12T04:37:15;7.20;99.90
25342;DHT22;13298;48.792;9.154;2023-04-12T04:39:43;7.20;99.90
25342;DHT22;13298;48.792;9.154;2023-04-12T04:42:08;7.10;99.90
25342;DHT22;13298;48.792;9.154;2023-04-12T04:44:35;7.10;99.90
25342;DHT22;13298;48.792;9.154;2023-04-12T04:47:01;7.10;99.90
25342;DHT22;13298;48.792;9.154;2023-04-12T04:49:27;7.10;99.90
25342;DHT22;13298;48.792;9.154;2023-04-12T04:51:53;7.10;99.90
25342;DHT22;13298;48.792;9.154;2023-04-12T04:54:19;7.10;99.90
25342;DHT22;13298;48.792;9.154;2023-04-12T04:56:44;7.10;99.90
25342;DHT22;13298;48.792;9.154;2023-04-12T04:59:10;7.10;99.90
25342;DHT22;13298;48.792;9.154;2023-04-12T05:01:36;7.10;99.90
25342;DHT22;13298;48.792;9.154;2023-04-12T05:04:02;7.20;99.90
25342;DHT22;13298;48.792;9.154;2023-04-12T05:06:28;7.20;99.90
25342;DHT22;13298;48.792;9.154;2023-04-12T05:08:53;7.20;99.90
25342;DHT22;13298;48.792;9.154;2023-04-12T05:11:20;7.20;99.90
25342;DHT22;13298;48.792;9.154;2023-04-12T05:13:46;7.20;99.90
25342;DHT22;13298;48.792;9.154;2023-04-12T05:16:12;7.20;99.90
25342;DHT22;13298;48.792;9.154;2023-04-12T05:18:37;7.20;99.90
25342;DHT22;13298;48.792;9.154;2023-04-12T05:21:03;7.20;99.90
25342;DHT22;13298;48.792;9.154;2023-04-12T05:23:34;7.20;99.90
25342;DHT22;13298;48.792;9.154;2023-04-12T05:26:03;7.20;99.90
25342;DHT22;13298;48.792;9.154;2023-04-12T05:28:29;7.20;99.90
25342;DHT22;13298;48.792;9.154;2023-04-12T05:30:55;7.20;99.90
25342;DHT22;13298;48.792;9.154;2023-04-12T05:33:20;7.20;99.90
25342;DHT22;13298;48.792;9.154;2023-04-12T05:35:46;7.30;99.90
25342;DHT22;13298;48.792;9.154;2023-04-12T05:38:12;7.30;99.90
25342;DHT22;13298;48.792;9.154;2023-04-12T05:40:37;7.30;99.90
25342;DHT22;13298;48.792;9.154;2023-04-12T05:43:03;7.30;99.90
25342;DHT22;13298;48.792;9.154;2023-04-12T05:45:29;7.40;99.90
25342;DHT22;13298;48.792;9.154;2023-04-12T05:47:55;7.40;99.90
25342;DHT22;13298;48.792;9.154;2023-04-12T05:50:20;7.40;99.90
25342;DHT22;13298;48.792;9.154;2023-04-12T05:52:46;7.40;99.90
25342;DHT22;13298;48.792;9.154;2023-04-12T05:55:15;7.50;99.90
25342;DHT22;13298;48.792;9.154;2023-04-12T05:57:43;7.50;99.90
25342;DHT22;13298;48.792;9.154;2023-04-12T06:00:11;7.50;99.90
25342;DHT22;13298;48.792;9.154;2023-04-12T06:02:43;7.50;99.90
25342;DHT22;13298;48.792;9.154;2023-04-12T06:05:09;7.60;99.90
25342;DHT22;13298;48.792;9.154;2023-04-12T06:07:37;7.60;99.90
25342;DHT22;13298;48.792;9.154;2023-04-12T06:10:04;7.60;99.90
25342;DHT22;13298;48.792;9.154;2023-04-12T06:12:31;7.60;99.90
25342;DHT22;13298;48.792;9.154;2023-04-12T06:14:57;7.70;99.90
25342;DHT22;13298;48.792;9.154;2023-04-12T06:17:22;7.70;99.90
25342;DHT22;13298;48.792;9.154;2023-04-12T06:19:48;7.70;99.90
25342;DHT22;13298;48.792;9.154;2023-04-12T06:22:14;7.70;99.90
25342;DHT22;13298;48.792;9.154;2023-04-12T06:24:40;7.80;99.90
25342;DHT22;13298;48.792;9.154;2023-04-12T06:27:06;7.80;99.90
25342;DHT22;13298;48.792;9.154;2023-04-12T06:29:31;7.80;99.90
25342;DHT22;13298;48.792;9.154;2023-04-12T06:31:57;7.80;99.90
25342;DHT22;13298;48.792;9.154;2023-04-12T06:34:23;7.80;99.90
25342;DHT22;13298;48.792;9.154;2023-04-12T06:36:49;7.90;99.90
25342;DHT22;13298;48.792;9.154;2023-04-12T06:39:14;8.00;99.90
25342;DHT22;13298;48.792;9.154;2023-04-12T06:41:41;8.00;99.90
25342;DHT22;13298;48.792;9.154;2023-04-12T06:44:12;8.10;99.90
25342;DHT22;13298;48.792;9.154;2023-04-12T06:46:37;8.10;99.90
25342;DHT22;13298;48.792;9.154;2023-04-12T06:49:03;8.20;99.90
25342;DHT22;13298;48.792;9.154;2023-04-12T06:51:29;8.20;99.90
25342;DHT22;13298;48.792;9.154;2023-04-12T06:53:55;8.30;99.90
25342;DHT22;13298;48.792;9.154;2023-04-12T06:56:22;8.30;99.90
25342;DHT22;13298;48.792;9.154;2023-04-12T06:58:47;8.40;99.90
25342;DHT22;13298;48.792;9.154;2023-04-12T07:01:13;8.50;99.90
25342;DHT22;13298;48.792;9.154;2023-04-12T07:03:39;8.50;99.90
25342;DHT22;13298;48.792;9.154;2023-04-12T07:06:05;8.60;99.90
25342;DHT22;13298;48.792;9.154;2023-04-12T07:08:32;8.60;99.90
25342;DHT22;13298;48.792;9.154;2023-04-12T07:10:58;8.70;99.90
25342;DHT22;13298;48.792;9.154;2023-04-12T07:13:24;8.70;99.90
25342;DHT22;13298;48.792;9.154;2023-04-12T07:15:51;8.80;99.90
25342;DHT22;13298;48.792;9.154;2023-04-12T07:18:17;8.80;99.90
25342;DHT22;13298;48.792;9.154;2023-04-12T07:20:48;8.90;99.90
25342;DHT22;13298;48.792;9.154;2023-04-12T07:23:15;8.90;99.90
25342;DHT22;13298;48.792;9.154;2023-04-12T07:25:40;9.00;99.90
25342;DHT22;13298;48.792;9.154;2023-04-12T07:28:06;9.00;99.90
25342;DHT22;13298;48.792;9.154;2023-04-12T07:30:32;9.00;99.90
25342;DHT22;13298;48.792;9.154;2023-04-12T07:32:58;9.10;99.90
25342;DHT22;13298;48.792;9.154;2023-04-12T07:35:30;9.20;99.90
25342;DHT22;13298;48.792;9.154;2023-04-12T07:37:56;9.20;99.90
25342;DHT22;13298;48.792;9.154;2023-04-12T07:40:23;9.20;99.90
25342;DHT22;13298;48.792;9.154;2023-04-12T07:42:49;9.20;99.90
25342;DHT22;13298;48.792;9.154;2023-04-12T07:45:15;9.30;99.90
25342;DHT22;13298;48.792;9.154;2023-04-12T07:47:41;9.30;99.90
25342;DHT22;13298;48.792;9.154;2023-04-12T07:50:07;9.40;99.90
25342;DHT22;13298;48.792;9.154;2023-04-12T07:52:33;9.50;99.90
25342;DHT22;13298;48.792;9.154;2023-04-12T07:54:59;9.50;99.90
25342;DHT22;13298;48.792;9.154;2023-04-12T07:57:24;9.60;99.90
25342;DHT22;13298;48.792;9.154;2023-04-12T07:59:51;9.60;99.90
25342;DHT22;13298;48.792;9.154;2023-04-12T08:02:17;9.60;99.90
25342;DHT22;13298;48.792;9.154;2023-04-12T08:04:50;9.70;99.90
25342;DHT22;13298;48.792;9.154;2023-04-12T08:07:16;9.80;99.90
25342;DHT22;13298;48.792;9.154;2023-04-12T08:09:41;9.90;99.90
25342;DHT22;13298;48.792;9.154;2023-04-12T08:12:07;10.00;99.90
25342;DHT22;13298;48.792;9.154;2023-04-12T08:14:33;10.00;99.90
25342;DHT22;13298;48.792;9.154;2023-04-12T08:16:59;10.00;99.90
25342;DHT22;13298;48.792;9.154;2023-04-12T08:19:24;10.00;99.90
25342;DHT22;13298;48.792;9.154;2023-04-12T08:21:50;10.10;99.90
25342;DHT22;13298;48.792;9.154;2023-04-12T08:24:16;10.10;99.90
25342;DHT22;13298;48.792;9.154;2023-04-12T08:26:42;10.10;99.90
25342;DHT22;13298;48.792;9.154;2023-04-12T08:29:08;10.10;99.90
25342;DHT22;13298;48.792;9.154;2023-04-12T08:31:33;10.10;99.90
25342;DHT22;13298;48.792;9.154;2023-04-12T08:33:59;10.10;99.90
25342;DHT22;13298;48.792;9.154;2023-04-12T08:36:25;10.10;99.90
25342;DHT22;13298;48.792;9.154;2023-04-12T08:38:51;10.10;99.90
25342;DHT22;13298;48.792;9.154;2023-04-12T08:41:20;10.10;99.90
25342;DHT22;13298;48.792;9.154;2023-04-12T08:43:46;10.20;99.90
25342;DHT22;13298;48.792;9.154;2023-04-12T08:46:13;10.20;99.90
25342;DHT22;13298;48.792;9.154;2023-04-12T08:48:40;10.20;99.90
25342;DHT22;13298;48.792;9.154;2023-04-12T08:51:10;10.20;99.90
25342;DHT22;13298;48.792;9.154;2023-04-12T08:53:37;10.30;99.90
25342;DHT22;13298;48.792;9.154;2023-04-12T08:56:06;10.40;99.90
25342;DHT22;13298;48.792;9.154;2023-04-12T08:58:36;10.40;99.90
25342;DHT22;13298;48.792;9.154;2023-04-12T09:01:03;10.40;99.90
25342;DHT22;13298;48.792;9.154;2023-04-12T09:03:32;10.40;99.90
25342;DHT22;13298;48.792;9.154;2023-04-12T09:06:02;10.40;99.90
25342;DHT22;13298;48.792;9.154;2023-04-12T09:08:27;10.40;99.90
25342;DHT22;13298;48.792;9.154;2023-04-12T09:10:53;10.50;99.90
25342;DHT22;13298;48.792;9.154;2023-04-12T09:13:33;10.50;99.90
25342;DHT22;13298;48.792;9.154;2023-04-12T09:16:00;10.50;99.90
25342;DHT22;13298;48.792;9.154;2023-04-12T09:18:26;10.50;99.90
25342;DHT22;13298;48.792;9.154;2023-04-12T09:21:06;10.60;99.90
25342;DHT22;13298;48.792;9.154;2023-04-12T09:23:32;10.70;99.90
25342;DHT22;13298;48.792;9.154;2023-04-12T09:26:00;10.80;99.90
25342;DHT22;13298;48.792;9.154;2023-04-12T09:28:27;11.00;99.90
25342;DHT22;13298;48.792;9.154;2023-04-12T09:30:58;11.20;99.90
25342;DHT22;13298;48.792;9.154;2023-04-12T09:33:35;11.40;99.90
25342;DHT22;13298;48.792;9.154;2023-04-12T09:36:06;11.70;99.90
25342;DHT22;13298;48.792;9.154;2023-04-12T09:38:37;11.90;99.90
25342;DHT22;13298;48.792;9.154;2023-04-12T09:41:20;12.10;99.90
25342;DHT22;13298;48.792;9.154;2023-04-12T09:43:50;12.20;99.90
25342;DHT22;13298;48.792;9.154;2023-04-12T09:46:15;12.40;99.90
25342;DHT22;13298;48.792;9.154;2023-04-12T09:48:48;12.50;99.90
25342;DHT22;13298;48.792;9.154;2023-04-12T09:51:25;12.60;99.90
25342;DHT22;13298;48.792;9.154;2023-04-12T09:53:54;12.60;99.90
25342;DHT22;13298;48.792;9.154;2023-04-12T09:56:24;12.60;99.90
25342;DHT22;13298;48.792;9.154;2023-04-12T09:58:53;12.70;99.90
25342;DHT22;13298;48.792;9.154;2023-04-12T10:01:21;12.80;99.90
25342;DHT22;13298;48.792;9.154;2023-04-12T10:03:48;12.90;99.90
25342;DHT22;13298;48.792;9.154;2023-04-12T10:06:14;13.10;99.90
25342;DHT22;13298;48.792;9.154;2023-04-12T10:08:41;13.20;99.90
25342;DHT22;13298;48.792;9.154;2023-04-12T10:11:07;13.30;99.90
25342;DHT22;13298;48.792;9.154;2023-04-12T10:13:34;13.50;99.90
25342;DHT22;13298;48.792;9.154;2023-04-12T10:16:03;13.60;99.90
25342;DHT22;13298;48.792;9.154;2023-04-12T10:18:30;13.80;99.90
25342;DHT22;13298;48.792;9.154;2023-04-12T10:21:00;13.90;99.90
25342;DHT22;13298;48.792;9.154;2023-04-12T10:23:26;14.10;99.90
25342;DHT22;13298;48.792;9.154;2023-04-12T10:25:52;14.20;99.90
25342;DHT22;13298;48.792;9.154;2023-04-12T10:28:21;14.20;99.90
25342;DHT22;13298;48.792;9.154;2023-04-12T10:30:47;14.30;99.90
25342;DHT22;13298;48.792;9.154;2023-04-12T10:33:17;14.30;99.90
25342;DHT22;13298;48.792;9.154;2023-04-12T10:38:13;14.40;99.90
25342;DHT22;13298;48.792;9.154;2023-04-12T10:41:05;14.30;99.90
25342;DHT22;13298;48.792;9.154;2023-04-12T10:43:34;14.30;99.90
25342;DHT22;13298;48.792;9.154;2023-04-12T10:45:59;14.50;99.90
25342;DHT22;13298;48.792;9.154;2023-04-12T10:48:39;14.80;99.90
25342;DHT22;13298;48.792;9.154;2023-04-12T10:51:17;14.90;99.90
25342;DHT22;13298;48.792;9.154;2023-04-12T10:53:43;15.00;99.90
25342;DHT22;13298;48.792;9.154;2023-04-12T10:58:57;15.10;99.90
25342;DHT22;13298;48.792;9.154;2023-04-12T11:01:24;15.10;99.90
25342;DHT22;13298;48.792;9.154;2023-04-12T11:14:47;15.50;99.90
25342;DHT22;13298;48.792;9.154;2023-04-12T11:19:42;15.60;99.90
25342;DHT22;13298;48.792;9.154;2023-04-12T11:22:10;15.50;99.90
25342;DHT22;13298;48.792;9.154;2023-04-12T11:24:43;15.30;99.90
25342;DHT22;13298;48.792;9.154;2023-04-12T11:27:11;15.30;99.90
25342;DHT22;13298;48.792;9.154;2023-04-12T11:29:37;15.30;99.90
25342;DHT22;13298;48.792;9.154;2023-04-12T11:32:04;15.30;99.90
25342;DHT22;13298;48.792;9.154;2023-04-12T11:34:34;15.30;99.90
25342;DHT22;13298;48.792;9.154;2023-04-12T11:37:01;15.20;99.90
25342;DHT22;13298;48.792;9.154;2023-04-12T11:39:30;15.10;99.90
25342;DHT22;13298;48.792;9.154;2023-04-12T11:41:56;14.90;99.90
25342;DHT22;13298;48.792;9.154;2023-04-12T11:44:22;14.90;99.90
25342;DHT22;13298;48.792;9.154;2023-04-12T11:46:48;15.10;99.90
25342;DHT22;13298;48.792;9.154;2023-04-12T11:49:18;15.30;99.90
25342;DHT22;13298;48.792;9.154;2023-04-12T11:51:45;15.40;99.90
25342;DHT22;13298;48.792;9.154;2023-04-12T11:54:11;15.60;99.90
25342;DHT22;13298;48.792;9.154;2023-04-12T11:56:38;15.90;99.90
25342;DHT22;13298;48.792;9.154;2023-04-12T11:59:05;15.90;99.90
25342;DHT22;13298;48.792;9.154;2023-04-12T12:01:33;16.10;99.90
25342;DHT22;13298;48.792;9.154;2023-04-12T12:04:00;16.10;99.90
25342;DHT22;13298;48.792;9.154;2023-04-12T12:06:26;16.00;99.90
25342;DHT22;13298;48.792;9.154;2023-04-12T12:08:53;16.00;99.90
25342;DHT22;13298;48.792;9.154;2023-04-12T12:11:20;16.00;99.90
25342;DHT22;13298;48.792;9.154;2023-04-12T12:13:49;16.00;99.90
25342;DHT22;13298;48.792;9.154;2023-04-12T12:16:16;15.80;99.90
25342;DHT22;13298;48.792;9.154;2023-04-12T12:18:43;15.80;99.90
25342;DHT22;13298;48.792;9.154;2023-04-12T12:21:12;15.70;99.90
25342;DHT22;13298;48.792;9.154;2023-04-12T12:23:41;15.80;99.90
25342;DHT22;13298;48.792;9.154;2023-04-12T12:26:08;15.90;99.90
25342;DHT22;13298;48.792;9.154;2023-04-12T12:28:37;16.10;99.90
25342;DHT22;13298;48.792;9.154;2023-04-12T12:31:06;16.20;99.90
25342;DHT22;13298;48.792;9.154;2023-04-12T12:33:41;16.30;99.90
25342;DHT22;13298;48.792;9.154;2023-04-12T12:36:07;16.30;99.90
25342;DHT22;13298;48.792;9.154;2023-04-12T12:38:38;16.30;99.90
25342;DHT22;13298;48.792;9.154;2023-04-12T12:41:14;16.40;99.90
25342;DHT22;13298;48.792;9.154;2023-04-12T12:43:48;16.50;99.90
25342;DHT22;13298;48.792;9.154;2023-04-12T12:46:15;16.70;99.90
25342;DHT22;13298;48.792;9.154;2023-04-12T12:48:44;16.70;99.90
25342;DHT22;13298;48.792;9.154;2023-04-12T12:51:11;16.80;99.90
25342;DHT22;13298;48.792;9.154;2023-04-12T12:53:39;16.80;99.90
25342;DHT22;13298;48.792;9.154;2023-04-12T12:56:08;17.00;99.90
25342;DHT22;13298;48.792;9.154;2023-04-12T12:58:35;17.00;99.90
25342;DHT22;13298;48.792;9.154;2023-04-12T13:01:01;17.10;99.90
25342;DHT22;13298;48.792;9.154;2023-04-12T13:03:29;17.10;99.90
25342;DHT22;13298;48.792;9.154;2023-04-12T13:05:55;16.90;99.90
25342;DHT22;13298;48.792;9.154;2023-04-12T13:08:21;16.70;99.90
25342;DHT22;13298;48.792;9.154;2023-04-12T13:10:48;16.60;99.90
25342;DHT22;13298;48.792;9.154;2023-04-12T13:13:13;16.70;99.90
25342;DHT22;13298;48.792;9.154;2023-04-12T13:15:39;17.00;99.90
25342;DHT22;13298;48.792;9.154;2023-04-12T13:18:05;17.30;99.90
25342;DHT22;13298;48.792;9.154;2023-04-12T13:20:32;17.50;99.90
25342;DHT22;13298;48.792;9.154;2023-04-12T13:22:58;17.50;99.90
25342;DHT22;13298;48.792;9.154;2023-04-12T13:25:25;17.40;99.90
25342;DHT22;13298;48.792;9.154;2023-04-12T13:27:51;17.10;99.90
25342;DHT22;13298;48.792;9.154;2023-04-12T13:30:20;16.80;99.90
25342;DHT22;13298;48.792;9.154;2023-04-12T13:32:45;16.40;99.90
25342;DHT22;13298;48.792;9.154;2023-04-12T13:35:12;16.00;99.90
25342;DHT22;13298;48.792;9.154;2023-04-12T13:37:38;15.70;99.90
25342;DHT22;13298;48.792;9.154;2023-04-12T13:40:04;15.60;99.90
25342;DHT22;13298;48.792;9.154;2023-04-12T13:42:30;15.70;99.90
25342;DHT22;13298;48.792;9.154;2023-04-12T13:44:56;16.10;99.90
25342;DHT22;13298;48.792;9.154;2023-04-12T13:47:22;16.40;99.90
25342;DHT22;13298;48.792;9.154;2023-04-12T13:49:48;16.70;99.90
25342;DHT22;13298;48.792;9.154;2023-04-12T13:52:14;16.80;99.90
25342;DHT22;13298;48.792;9.154;2023-04-12T13:54:40;16.80;99.90
25342;DHT22;13298;48.792;9.154;2023-04-12T13:57:07;16.80;99.90
25342;DHT22;13298;48.792;9.154;2023-04-12T13:59:34;16.60;99.90
25342;DHT22;13298;48.792;9.154;2023-04-12T14:02:00;16.40;99.90
25342;DHT22;13298;48.792;9.154;2023-04-12T14:04:27;16.30;99.90
25342;DHT22;13298;48.792;9.154;2023-04-12T14:06:54;16.10;99.90
25342;DHT22;13298;48.792;9.154;2023-04-12T14:09:27;16.00;99.90
25342;DHT22;13298;48.792;9.154;2023-04-12T14:11:56;15.90;99.90
25342;DHT22;13298;48.792;9.154;2023-04-12T14:14:23;15.90;99.90
25342;DHT22;13298;48.792;9.154;2023-04-12T14:16:51;16.10;99.90
25342;DHT22;13298;48.792;9.154;2023-04-12T14:19:19;16.30;99.90
25342;DHT22;13298;48.792;9.154;2023-04-12T14:21:47;16.70;99.90
25342;DHT22;13298;48.792;9.154;2023-04-12T14:24:16;16.90;99.90
25342;DHT22;13298;48.792;9.154;2023-04-12T14:26:42;17.00;99.90
25342;DHT22;13298;48.792;9.154;2023-04-12T14:29:09;17.20;99.90
25342;DHT22;13298;48.792;9.154;2023-04-12T14:31:35;17.40;99.90
25342;DHT22;13298;48.792;9.154;2023-04-12T14:34:02;17.30;99.90
25342;DHT22;13298;48.792;9.154;2023-04-12T14:36:28;17.00;99.90
25342;DHT22;13298;48.792;9.154;2023-04-12T14:38:54;16.80;99.90
25342;DHT22;13298;48.792;9.154;2023-04-12T14:41:20;16.60;99.90
25342;DHT22;13298;48.792;9.154;2023-04-12T14:43:45;16.40;99.90
25342;DHT22;13298;48.792;9.154;2023-04-12T14:46:11;16.40;99.90
25342;DHT22;13298;48.792;9.154;2023-04-12T14:48:38;16.30;99.90
25342;DHT22;13298;48.792;9.154;2023-04-12T14:51:05;16.20;99.90
25342;DHT22;13298;48.792;9.154;2023-04-12T14:53:31;16.20;99.90
25342;DHT22;13298;48.792;9.154;2023-04-12T14:55:57;16.20;99.90
25342;DHT22;13298;48.792;9.154;2023-04-12T14:58:24;16.20;99.90
25342;DHT22;13298;48.792;9.154;2023-04-12T15:00:51;16.30;99.90
25342;DHT22;13298;48.792;9.154;2023-04-12T15:03:18;16.30;99.90
25342;DHT22;13298;48.792;9.154;2023-04-12T15:05:44;16.20;99.90
25342;DHT22;13298;48.792;9.154;2023-04-12T15:08:11;16.10;99.90
25342;DHT22;13298;48.792;9.154;2023-04-12T15:10:37;16.00;99.90
25342;DHT22;13298;48.792;9.154;2023-04-12T15:13:02;15.80;99.90
25342;DHT22;13298;48.792;9.154;2023-04-12T15:18:00;15.30;99.90
25342;DHT22;13298;48.792;9.154;2023-04-12T15:20:27;14.80;99.90
25342;DHT22;13298;48.792;9.154;2023-04-12T15:22:53;13.40;99.90
25342;DHT22;13298;48.792;9.154;2023-04-12T15:25:19;12.10;99.90
25342;DHT22;13298;48.792;9.154;2023-04-12T15:27:46;11.10;99.90
25342;DHT22;13298;48.792;9.154;2023-04-12T15:30:12;10.40;99.90
25342;DHT22;13298;48.792;9.154;2023-04-12T15:32:40;10.00;99.90
25342;DHT22;13298;48.792;9.154;2023-04-12T15:35:06;9.80;99.90
25342;DHT22;13298;48.792;9.154;2023-04-12T15:37:33;9.60;99.90
25342;DHT22;13298;48.792;9.154;2023-04-12T15:40:00;9.50;99.90
25342;DHT22;13298;48.792;9.154;2023-04-12T15:42:42;9.40;99.90
25342;DHT22;13298;48.792;9.154;2023-04-12T15:45:09;9.30;99.90
25342;DHT22;13298;48.792;9.154;2023-04-12T15:47:35;9.30;99.90
25342;DHT22;13298;48.792;9.154;2023-04-12T15:50:05;9.30;99.90
25342;DHT22;13298;48.792;9.154;2023-04-12T15:52:32;9.40;99.90
25342;DHT22;13298;48.792;9.154;2023-04-12T15:54:57;9.40;99.90
25342;DHT22;13298;48.792;9.154;2023-04-12T15:57:24;9.50;99.90
25342;DHT22;13298;48.792;9.154;2023-04-12T15:59:51;9.60;99.90
25342;DHT22;13298;48.792;9.154;2023-04-12T16:02:18;9.80;99.90
25342;DHT22;13298;48.792;9.154;2023-04-12T16:04:44;10.10;99.90
25342;DHT22;13298;48.792;9.154;2023-04-12T16:07:10;10.20;99.90
25342;DHT22;13298;48.792;9.154;2023-04-12T16:09:37;10.40;99.90
25342;DHT22;13298;48.792;9.154;2023-04-12T16:12:04;10.60;99.90
25342;DHT22;13298;48.792;9.154;2023-04-12T16:14:29;10.70;99.90